createdAt,value
2022-08-07T00:04:47.547Z,0.70
2022-08-07T00:14:50.447Z,0.80
2022-08-07T00:24:51.913Z,0.55
2022-08-07T00:34:54.240Z,0.77
2022-08-07T00:44:55.529Z,0.80
2022-08-07T00:54:56.883Z,0.88
2022-08-07T01:04:59.191Z,0.77
2022-08-07T01:15:03.923Z,1.20
2022-08-07T01:25:40.603Z,1.13
2022-08-07T01:35:53.727Z,1.17
2022-08-07T01:45:48.492Z,1.30
2022-08-07T01:55:55.938Z,1.40
2022-08-07T02:06:00.021Z,1.17
2022-08-07T02:16:02.388Z,1.55
2022-08-07T02:26:30.759Z,1.20
2022-08-07T02:36:33.110Z,1.30
2022-08-07T02:56:38.285Z,0.98
2022-08-07T03:06:41.413Z,0.80
2022-08-07T03:16:43.376Z,1.20
2022-08-07T03:26:58.333Z,1.00
2022-08-07T03:37:00.791Z,0.90
2022-08-07T03:47:14.718Z,0.90
2022-08-07T03:58:35.204Z,0.85
2022-08-07T04:07:42.755Z,1.00
2022-08-07T04:18:30.797Z,0.90
2022-08-07T04:28:08.248Z,0.80
2022-08-07T04:38:13.055Z,0.68
2022-08-07T04:48:14.967Z,0.77
2022-08-07T04:58:33.598Z,0.60
2022-08-07T05:09:00.025Z,0.70
2022-08-07T05:19:00.759Z,0.90
2022-08-07T05:29:04.129Z,0.75
2022-08-07T05:40:06.792Z,0.80
2022-08-07T05:49:27.064Z,0.63
2022-08-07T05:59:57.269Z,0.93
2022-08-07T06:10:05.325Z,0.75
2022-08-07T06:20:12.723Z,0.55
2022-08-07T06:30:35.699Z,0.73
2022-08-07T06:40:39.759Z,0.85
2022-08-07T06:50:47.626Z,0.80
2022-08-07T07:00:53.087Z,0.57
2022-08-07T07:10:56.861Z,1.10
2022-08-07T07:20:59.073Z,1.10
2022-08-07T07:31:00.419Z,1.33
2022-08-07T07:41:02.562Z,1.30
2022-08-07T07:51:07.690Z,1.33
2022-08-07T08:02:02.904Z,1.20
2022-08-07T08:11:59.365Z,1.25
2022-08-07T08:22:11.315Z,1.30
2022-08-07T08:32:18.725Z,1.23
2022-08-07T08:42:26.621Z,1.50
2022-08-07T08:52:30.344Z,1.38
2022-08-07T09:02:35.110Z,1.52
2022-08-07T09:12:38.681Z,1.55
2022-08-07T09:24:30.925Z,1.30
2022-08-07T09:33:05.506Z,1.50
2022-08-07T09:43:18.138Z,1.40
2022-08-07T09:53:20.229Z,1.50
2022-08-07T10:04:05.251Z,1.70
2022-08-07T10:14:01.399Z,1.75
2022-08-07T10:24:04.971Z,1.25
2022-08-07T10:34:18.158Z,1.20
2022-08-07T10:44:33.723Z,1.10
2022-08-07T10:54:39.532Z,0.77
2022-08-07T11:04:40.967Z,0.93
2022-08-07T11:14:59.648Z,0.68
2022-08-07T11:25:06.471Z,0.70
2022-08-07T11:35:09.263Z,0.80
2022-08-07T11:45:12.210Z,0.70
2022-08-07T11:56:09.196Z,0.70
2022-08-07T12:05:47.367Z,0.57
2022-08-07T12:16:06.553Z,0.60
2022-08-07T12:26:30.077Z,0.55
2022-08-07T12:36:33.526Z,0.85
2022-08-07T12:46:35.177Z,0.50
2022-08-07T12:56:39.565Z,0.50
2022-08-07T13:07:00.500Z,0.70
2022-08-07T13:17:02.535Z,0.50
2022-08-07T13:27:05.747Z,0.77
2022-08-07T13:47:25.220Z,0.30
2022-08-07T13:57:26.874Z,0.47
2022-08-07T14:07:59.270Z,0.55
2022-08-07T14:18:27.489Z,0.52
2022-08-07T14:28:32.204Z,0.50
2022-08-07T14:38:50.458Z,0.50
2022-08-07T14:48:52.028Z,0.47
2022-08-07T15:30:04.795Z,0.60
2022-08-07T15:40:34.563Z,0.47
2022-08-07T15:50:37.620Z,0.52
2022-08-07T16:00:57.819Z,0.85
2022-08-07T16:10:59.148Z,0.55
2022-08-07T16:21:57.096Z,0.68
2022-08-07T16:31:51.564Z,0.77
2022-08-07T16:41:53.948Z,0.60
2022-08-07T16:52:35.335Z,0.52
2022-08-07T17:02:51.136Z,0.70
2022-08-07T17:12:44.685Z,0.70
2022-08-07T17:22:46.956Z,0.60
2022-08-07T17:32:52.482Z,0.70
2022-08-07T17:42:58.270Z,0.52
2022-08-07T17:53:01.731Z,0.50
2022-08-07T18:03:09.345Z,0.50
2022-08-07T18:13:11.021Z,0.77
2022-08-07T18:23:42.727Z,0.65
2022-08-07T18:33:38.896Z,0.90
2022-08-07T18:43:57.486Z,0.80
2022-08-07T18:53:59.374Z,0.63
2022-08-07T19:04:03.106Z,0.70
2022-08-07T19:14:11.547Z,0.52
2022-08-07T19:24:30.781Z,0.70
2022-08-07T19:34:36.116Z,0.55
2022-08-07T19:44:41.158Z,0.50
2022-08-07T19:54:45.134Z,0.63
2022-08-07T20:05:00.507Z,0.60
2022-08-07T20:15:03.601Z,0.97
2022-08-07T20:25:12.971Z,0.80
2022-08-07T20:35:26.399Z,0.52
2022-08-07T20:45:33.185Z,0.70
2022-08-07T20:55:50.175Z,0.75
2022-08-07T21:05:56.487Z,0.60
2022-08-07T21:26:03.270Z,0.93
2022-08-07T21:36:12.072Z,0.90
2022-08-07T21:46:31.627Z,0.90
2022-08-07T21:56:37.710Z,1.00
2022-08-07T22:06:44.974Z,0.80
2022-08-07T22:16:47.787Z,0.75
2022-08-07T22:26:49.247Z,1.00
2022-08-07T22:36:52.691Z,0.88
2022-08-07T22:47:04.171Z,0.75
2022-08-07T22:57:07.905Z,1.15
2022-08-07T23:07:39.867Z,0.95
2022-08-07T23:17:32.933Z,1.38
2022-08-07T23:27:34.517Z,0.70
2022-08-07T23:37:36.154Z,0.80
2022-08-07T23:47:46.465Z,0.90
2022-08-07T23:57:49.411Z,1.05
